sensor_id;sensor_type;location;lat;lon;timestamp;P1;durP1;ratioP1;P2;durP2;ratioP2
65172;SDS011;51758;52.218;5.172;2022-10-23T00:01:09;14.65;;;8.57;;
65172;SDS011;51758;52.218;5.172;2022-10-23T00:03:38;12.40;;;7.77;;
65172;SDS011;51758;52.218;5.172;2022-10-23T00:06:06;14.83;;;8.60;;
65172;SDS011;51758;52.218;5.172;2022-10-23T00:08:34;16.25;;;9.15;;
65172;SDS011;51758;52.218;5.172;2022-10-23T00:11:05;10.97;;;7.30;;
65172;SDS011;51758;52.218;5.172;2022-10-23T00:13:34;18.17;;;9.13;;
65172;SDS011;51758;52.218;5.172;2022-10-23T00:16:03;11.23;;;8.18;;
65172;SDS011;51758;52.218;5.172;2022-10-23T00:18:31;15.00;;;8.53;;
65172;SDS011;51758;52.218;5.172;2022-10-23T00:20:59;14.43;;;7.50;;
65172;SDS011;51758;52.218;5.172;2022-10-23T00:23:27;16.52;;;8.77;;
65172;SDS011;51758;52.218;5.172;2022-10-23T00:25:55;16.90;;;9.20;;
65172;SDS011;51758;52.218;5.172;2022-10-23T00:28:23;15.57;;;8.40;;
65172;SDS011;51758;52.218;5.172;2022-10-23T00:30:50;16.53;;;9.10;;
65172;SDS011;51758;52.218;5.172;2022-10-23T00:33:19;12.77;;;8.27;;
65172;SDS011;51758;52.218;5.172;2022-10-23T00:35:47;12.67;;;8.47;;
65172;SDS011;51758;52.218;5.172;2022-10-23T00:38:15;15.90;;;8.73;;
65172;SDS011;51758;52.218;5.172;2022-10-23T00:40:42;14.63;;;8.53;;
65172;SDS011;51758;52.218;5.172;2022-10-23T00:43:15;13.20;;;8.03;;
65172;SDS011;51758;52.218;5.172;2022-10-23T00:45:44;17.30;;;9.17;;
65172;SDS011;51758;52.218;5.172;2022-10-23T00:48:12;13.40;;;8.68;;
65172;SDS011;51758;52.218;5.172;2022-10-23T00:50:42;17.25;;;8.40;;
65172;SDS011;51758;52.218;5.172;2022-10-23T00:53:10;13.57;;;8.93;;
65172;SDS011;51758;52.218;5.172;2022-10-23T00:55:40;13.43;;;8.53;;
65172;SDS011;51758;52.218;5.172;2022-10-23T00:58:11;14.77;;;8.90;;
65172;SDS011;51758;52.218;5.172;2022-10-23T01:00:41;16.02;;;8.43;;
65172;SDS011;51758;52.218;5.172;2022-10-23T01:03:11;14.83;;;8.00;;
65172;SDS011;51758;52.218;5.172;2022-10-23T01:05:43;10.93;;;7.27;;
65172;SDS011;51758;52.218;5.172;2022-10-23T01:08:16;17.50;;;7.73;;
65172;SDS011;51758;52.218;5.172;2022-10-23T01:10:53;16.53;;;8.67;;
65172;SDS011;51758;52.218;5.172;2022-10-23T01:13:31;13.83;;;8.60;;
65172;SDS011;51758;52.218;5.172;2022-10-23T01:16:04;15.50;;;9.00;;
65172;SDS011;51758;52.218;5.172;2022-10-23T01:18:40;13.67;;;7.63;;
65172;SDS011;51758;52.218;5.172;2022-10-23T01:21:15;12.87;;;8.73;;
65172;SDS011;51758;52.218;5.172;2022-10-23T01:26:49;16.60;;;9.77;;
65172;SDS011;51758;52.218;5.172;2022-10-23T01:29:32;12.63;;;9.27;;
65172;SDS011;51758;52.218;5.172;2022-10-23T01:32:06;11.63;;;7.43;;
65172;SDS011;51758;52.218;5.172;2022-10-23T01:34:41;16.63;;;8.80;;
65172;SDS011;51758;52.218;5.172;2022-10-23T01:37:14;16.57;;;8.97;;
65172;SDS011;51758;52.218;5.172;2022-10-23T01:39:47;16.30;;;9.27;;
65172;SDS011;51758;52.218;5.172;2022-10-23T01:42:19;15.40;;;9.47;;
65172;SDS011;51758;52.218;5.172;2022-10-23T01:44:52;12.83;;;8.07;;
65172;SDS011;51758;52.218;5.172;2022-10-23T01:47:26;23.27;;;9.17;;
65172;SDS011;51758;52.218;5.172;2022-10-23T01:49:57;13.47;;;8.20;;
65172;SDS011;51758;52.218;5.172;2022-10-23T01:52:26;14.47;;;9.10;;
65172;SDS011;51758;52.218;5.172;2022-10-23T01:54:54;17.07;;;9.13;;
65172;SDS011;51758;52.218;5.172;2022-10-23T01:57:26;14.97;;;9.80;;
65172;SDS011;51758;52.218;5.172;2022-10-23T01:59:59;13.67;;;8.77;;
65172;SDS011;51758;52.218;5.172;2022-10-23T02:02:30;15.00;;;8.90;;
65172;SDS011;51758;52.218;5.172;2022-10-23T02:05:01;14.07;;;9.37;;
65172;SDS011;51758;52.218;5.172;2022-10-23T02:07:33;14.17;;;9.20;;
65172;SDS011;51758;52.218;5.172;2022-10-23T02:10:01;14.52;;;8.00;;
65172;SDS011;51758;52.218;5.172;2022-10-23T02:12:31;16.30;;;8.43;;
65172;SDS011;51758;52.218;5.172;2022-10-23T02:15:08;18.90;;;9.60;;
65172;SDS011;51758;52.218;5.172;2022-10-23T02:17:42;13.93;;;8.20;;
65172;SDS011;51758;52.218;5.172;2022-10-23T02:20:19;17.07;;;8.90;;
65172;SDS011;51758;52.218;5.172;2022-10-23T02:22:53;12.63;;;8.07;;
65172;SDS011;51758;52.218;5.172;2022-10-23T02:25:29;18.07;;;10.17;;
65172;SDS011;51758;52.218;5.172;2022-10-23T02:28:02;13.20;;;8.17;;
65172;SDS011;51758;52.218;5.172;2022-10-23T02:30:36;20.53;;;11.40;;
65172;SDS011;51758;52.218;5.172;2022-10-23T02:33:08;14.73;;;8.77;;
65172;SDS011;51758;52.218;5.172;2022-10-23T02:35:38;19.10;;;9.33;;
65172;SDS011;51758;52.218;5.172;2022-10-23T02:41:02;13.33;;;9.20;;
65172;SDS011;51758;52.218;5.172;2022-10-23T02:43:40;10.70;;;8.00;;
65172;SDS011;51758;52.218;5.172;2022-10-23T02:46:19;17.30;;;9.50;;
65172;SDS011;51758;52.218;5.172;2022-10-23T02:48:52;13.90;;;9.60;;
65172;SDS011;51758;52.218;5.172;2022-10-23T02:51:30;14.67;;;9.03;;
65172;SDS011;51758;52.218;5.172;2022-10-23T02:54:04;17.47;;;10.70;;
65172;SDS011;51758;52.218;5.172;2022-10-23T02:56:35;16.33;;;11.07;;
65172;SDS011;51758;52.218;5.172;2022-10-23T02:59:10;11.17;;;9.40;;
65172;SDS011;51758;52.218;5.172;2022-10-23T03:01:48;9.30;;;7.90;;
65172;SDS011;51758;52.218;5.172;2022-10-23T03:04:20;14.63;;;9.60;;
65172;SDS011;51758;52.218;5.172;2022-10-23T03:06:50;13.23;;;8.87;;
65172;SDS011;51758;52.218;5.172;2022-10-23T03:09:18;17.40;;;10.85;;
65172;SDS011;51758;52.218;5.172;2022-10-23T03:11:46;17.07;;;9.70;;
65172;SDS011;51758;52.218;5.172;2022-10-23T03:14:14;14.80;;;9.17;;
65172;SDS011;51758;52.218;5.172;2022-10-23T03:16:41;18.03;;;9.67;;
65172;SDS011;51758;52.218;5.172;2022-10-23T03:19:11;16.67;;;10.57;;
65172;SDS011;51758;52.218;5.172;2022-10-23T03:21:39;15.67;;;9.13;;
65172;SDS011;51758;52.218;5.172;2022-10-23T03:24:06;11.57;;;7.57;;
65172;SDS011;51758;52.218;5.172;2022-10-23T03:26:34;9.30;;;7.32;;
65172;SDS011;51758;52.218;5.172;2022-10-23T03:29:02;15.20;;;7.90;;
65172;SDS011;51758;52.218;5.172;2022-10-23T03:31:29;11.87;;;7.20;;
65172;SDS011;51758;52.218;5.172;2022-10-23T03:33:57;14.30;;;9.70;;
65172;SDS011;51758;52.218;5.172;2022-10-23T03:36:27;14.00;;;9.20;;
65172;SDS011;51758;52.218;5.172;2022-10-23T03:38:55;16.67;;;9.27;;
65172;SDS011;51758;52.218;5.172;2022-10-23T03:41:25;20.33;;;10.87;;
65172;SDS011;51758;52.218;5.172;2022-10-23T03:43:52;18.70;;;10.40;;
65172;SDS011;51758;52.218;5.172;2022-10-23T03:46:20;15.43;;;10.33;;
65172;SDS011;51758;52.218;5.172;2022-10-23T03:48:48;19.37;;;10.67;;
65172;SDS011;51758;52.218;5.172;2022-10-23T03:51:15;14.63;;;8.53;;
65172;SDS011;51758;52.218;5.172;2022-10-23T03:53:44;20.90;;;11.60;;
65172;SDS011;51758;52.218;5.172;2022-10-23T03:56:12;15.40;;;9.97;;
65172;SDS011;51758;52.218;5.172;2022-10-23T03:58:40;20.10;;;11.23;;
65172;SDS011;51758;52.218;5.172;2022-10-23T04:01:07;16.10;;;10.57;;
65172;SDS011;51758;52.218;5.172;2022-10-23T04:03:35;19.13;;;10.67;;
65172;SDS011;51758;52.218;5.172;2022-10-23T04:06:03;15.67;;;10.27;;
65172;SDS011;51758;52.218;5.172;2022-10-23T04:08:31;17.92;;;10.13;;
65172;SDS011;51758;52.218;5.172;2022-10-23T04:11:00;15.30;;;9.63;;
65172;SDS011;51758;52.218;5.172;2022-10-23T04:13:27;16.63;;;10.10;;
65172;SDS011;51758;52.218;5.172;2022-10-23T04:15:55;20.27;;;10.13;;
65172;SDS011;51758;52.218;5.172;2022-10-23T04:18:23;11.23;;;8.70;;
65172;SDS011;51758;52.218;5.172;2022-10-23T04:20:51;16.50;;;11.07;;
65172;SDS011;51758;52.218;5.172;2022-10-23T04:23:19;15.98;;;9.68;;
65172;SDS011;51758;52.218;5.172;2022-10-23T04:25:46;20.63;;;10.47;;
65172;SDS011;51758;52.218;5.172;2022-10-23T04:28:15;18.50;;;10.00;;
65172;SDS011;51758;52.218;5.172;2022-10-23T04:30:43;12.10;;;8.83;;
65172;SDS011;51758;52.218;5.172;2022-10-23T04:33:10;17.83;;;9.50;;
65172;SDS011;51758;52.218;5.172;2022-10-23T04:35:38;16.87;;;10.50;;
65172;SDS011;51758;52.218;5.172;2022-10-23T04:38:06;17.97;;;10.10;;
65172;SDS011;51758;52.218;5.172;2022-10-23T04:40:33;21.23;;;9.50;;
65172;SDS011;51758;52.218;5.172;2022-10-23T04:43:01;15.40;;;10.30;;
65172;SDS011;51758;52.218;5.172;2022-10-23T04:45:30;12.63;;;8.38;;
65172;SDS011;51758;52.218;5.172;2022-10-23T04:47:58;15.37;;;9.13;;
65172;SDS011;51758;52.218;5.172;2022-10-23T04:50:26;13.73;;;8.10;;
65172;SDS011;51758;52.218;5.172;2022-10-23T04:52:54;14.33;;;9.50;;
65172;SDS011;51758;52.218;5.172;2022-10-23T04:55:22;13.60;;;9.00;;
65172;SDS011;51758;52.218;5.172;2022-10-23T04:57:50;11.82;;;9.15;;
65172;SDS011;51758;52.218;5.172;2022-10-23T05:00:18;13.43;;;8.75;;
65172;SDS011;51758;52.218;5.172;2022-10-23T05:02:47;13.17;;;9.20;;
65172;SDS011;51758;52.218;5.172;2022-10-23T05:05:15;17.33;;;11.00;;
65172;SDS011;51758;52.218;5.172;2022-10-23T05:07:43;14.83;;;9.87;;
65172;SDS011;51758;52.218;5.172;2022-10-23T05:10:11;16.00;;;9.77;;
65172;SDS011;51758;52.218;5.172;2022-10-23T05:12:38;16.47;;;9.70;;
65172;SDS011;51758;52.218;5.172;2022-10-23T05:15:06;17.13;;;10.30;;
65172;SDS011;51758;52.218;5.172;2022-10-23T05:17:34;19.73;;;11.05;;
65172;SDS011;51758;52.218;5.172;2022-10-23T05:20:09;23.23;;;13.30;;
65172;SDS011;51758;52.218;5.172;2022-10-23T05:22:40;19.80;;;11.40;;
65172;SDS011;51758;52.218;5.172;2022-10-23T05:25:10;30.90;;;15.33;;
65172;SDS011;51758;52.218;5.172;2022-10-23T05:27:38;24.85;;;15.25;;
65172;SDS011;51758;52.218;5.172;2022-10-23T05:30:07;25.90;;;14.27;;
65172;SDS011;51758;52.218;5.172;2022-10-23T05:32:36;24.23;;;12.67;;
65172;SDS011;51758;52.218;5.172;2022-10-23T05:35:05;17.42;;;10.85;;
65172;SDS011;51758;52.218;5.172;2022-10-23T05:37:37;18.90;;;10.37;;
65172;SDS011;51758;52.218;5.172;2022-10-23T05:40:08;16.30;;;10.00;;
65172;SDS011;51758;52.218;5.172;2022-10-23T05:42:36;20.30;;;10.23;;
65172;SDS011;51758;52.218;5.172;2022-10-23T05:45:07;17.93;;;9.73;;
65172;SDS011;51758;52.218;5.172;2022-10-23T05:47:35;18.73;;;9.73;;
65172;SDS011;51758;52.218;5.172;2022-10-23T05:50:03;15.53;;;9.27;;
65172;SDS011;51758;52.218;5.172;2022-10-23T05:52:31;16.25;;;9.00;;
65172;SDS011;51758;52.218;5.172;2022-10-23T05:55:00;15.47;;;9.00;;
65172;SDS011;51758;52.218;5.172;2022-10-23T05:57:30;16.50;;;8.93;;
65172;SDS011;51758;52.218;5.172;2022-10-23T05:59:58;16.97;;;9.03;;
65172;SDS011;51758;52.218;5.172;2022-10-23T06:02:26;17.30;;;7.90;;
65172;SDS011;51758;52.218;5.172;2022-10-23T06:04:54;12.93;;;7.50;;
65172;SDS011;51758;52.218;5.172;2022-10-23T06:07:22;14.43;;;7.83;;
65172;SDS011;51758;52.218;5.172;2022-10-23T06:14:48;13.77;;;6.37;;
65172;SDS011;51758;52.218;5.172;2022-10-23T06:17:17;13.60;;;6.93;;
65172;SDS011;51758;52.218;5.172;2022-10-23T06:19:44;15.23;;;6.90;;
65172;SDS011;51758;52.218;5.172;2022-10-23T06:22:12;12.60;;;7.50;;
65172;SDS011;51758;52.218;5.172;2022-10-23T06:24:40;16.40;;;7.30;;
65172;SDS011;51758;52.218;5.172;2022-10-23T06:27:07;12.07;;;6.80;;
65172;SDS011;51758;52.218;5.172;2022-10-23T06:29:36;15.25;;;7.07;;
65172;SDS011;51758;52.218;5.172;2022-10-23T06:32:04;14.87;;;6.70;;
65172;SDS011;51758;52.218;5.172;2022-10-23T06:34:32;13.07;;;6.13;;
65172;SDS011;51758;52.218;5.172;2022-10-23T06:37:00;13.75;;;6.53;;
65172;SDS011;51758;52.218;5.172;2022-10-23T06:39:27;11.67;;;6.13;;
65172;SDS011;51758;52.218;5.172;2022-10-23T06:41:57;15.63;;;6.73;;
65172;SDS011;51758;52.218;5.172;2022-10-23T06:44:25;14.17;;;6.67;;
65172;SDS011;51758;52.218;5.172;2022-10-23T06:46:54;11.17;;;6.17;;
65172;SDS011;51758;52.218;5.172;2022-10-23T06:49:21;10.93;;;6.27;;
65172;SDS011;51758;52.218;5.172;2022-10-23T06:51:49;10.67;;;6.50;;
65172;SDS011;51758;52.218;5.172;2022-10-23T06:54:17;10.80;;;6.90;;
65172;SDS011;51758;52.218;5.172;2022-10-23T06:56:44;12.93;;;6.30;;
65172;SDS011;51758;52.218;5.172;2022-10-23T06:59:12;13.30;;;7.03;;
65172;SDS011;51758;52.218;5.172;2022-10-23T07:01:39;12.27;;;6.13;;
65172;SDS011;51758;52.218;5.172;2022-10-23T07:04:09;9.95;;;6.43;;
65172;SDS011;51758;52.218;5.172;2022-10-23T07:06:38;15.73;;;6.73;;
65172;SDS011;51758;52.218;5.172;2022-10-23T07:09:06;12.90;;;6.32;;
65172;SDS011;51758;52.218;5.172;2022-10-23T07:11:34;14.50;;;6.75;;
65172;SDS011;51758;52.218;5.172;2022-10-23T07:14:03;13.73;;;7.03;;
65172;SDS011;51758;52.218;5.172;2022-10-23T07:16:30;13.03;;;7.27;;
65172;SDS011;51758;52.218;5.172;2022-10-23T07:18:58;12.33;;;6.90;;
65172;SDS011;51758;52.218;5.172;2022-10-23T07:21:28;14.80;;;7.00;;
65172;SDS011;51758;52.218;5.172;2022-10-23T07:23:57;15.03;;;6.80;;
65172;SDS011;51758;52.218;5.172;2022-10-23T07:26:25;12.47;;;6.87;;
65172;SDS011;51758;52.218;5.172;2022-10-23T07:28:53;14.07;;;7.18;;
65172;SDS011;51758;52.218;5.172;2022-10-23T07:31:21;17.45;;;7.78;;
65172;SDS011;51758;52.218;5.172;2022-10-23T07:33:53;11.83;;;6.63;;
65172;SDS011;51758;52.218;5.172;2022-10-23T07:36:21;13.47;;;7.37;;
65172;SDS011;51758;52.218;5.172;2022-10-23T07:38:50;13.20;;;7.00;;
65172;SDS011;51758;52.218;5.172;2022-10-23T07:41:18;14.07;;;7.10;;
65172;SDS011;51758;52.218;5.172;2022-10-23T07:43:46;13.02;;;7.78;;
65172;SDS011;51758;52.218;5.172;2022-10-23T07:46:13;14.87;;;7.10;;
65172;SDS011;51758;52.218;5.172;2022-10-23T07:48:41;16.13;;;7.00;;
65172;SDS011;51758;52.218;5.172;2022-10-23T07:51:10;13.63;;;7.27;;
65172;SDS011;51758;52.218;5.172;2022-10-23T07:53:39;13.43;;;7.17;;
65172;SDS011;51758;52.218;5.172;2022-10-23T07:58:39;16.37;;;7.70;;
65172;SDS011;51758;52.218;5.172;2022-10-23T08:01:12;12.20;;;7.00;;
65172;SDS011;51758;52.218;5.172;2022-10-23T08:03:43;13.50;;;7.03;;
65172;SDS011;51758;52.218;5.172;2022-10-23T08:06:11;10.60;;;6.55;;
65172;SDS011;51758;52.218;5.172;2022-10-23T08:08:38;14.10;;;7.40;;
65172;SDS011;51758;52.218;5.172;2022-10-23T08:11:06;16.17;;;6.83;;
65172;SDS011;51758;52.218;5.172;2022-10-23T08:13:38;11.70;;;6.80;;
65172;SDS011;51758;52.218;5.172;2022-10-23T08:16:06;10.97;;;6.93;;
65172;SDS011;51758;52.218;5.172;2022-10-23T08:18:34;10.95;;;6.30;;
65172;SDS011;51758;52.218;5.172;2022-10-23T08:21:02;12.33;;;7.13;;
65172;SDS011;51758;52.218;5.172;2022-10-23T08:23:30;9.90;;;6.68;;
65172;SDS011;51758;52.218;5.172;2022-10-23T08:25:58;10.47;;;6.20;;
65172;SDS011;51758;52.218;5.172;2022-10-23T08:28:27;13.93;;;6.97;;
65172;SDS011;51758;52.218;5.172;2022-10-23T08:30:56;11.60;;;6.18;;
65172;SDS011;51758;52.218;5.172;2022-10-23T08:33:24;12.33;;;6.43;;
65172;SDS011;51758;52.218;5.172;2022-10-23T08:35:51;15.87;;;6.53;;
65172;SDS011;51758;52.218;5.172;2022-10-23T08:38:19;15.30;;;5.93;;
65172;SDS011;51758;52.218;5.172;2022-10-23T08:40:47;10.03;;;5.83;;
65172;SDS011;51758;52.218;5.172;2022-10-23T08:43:17;12.45;;;6.22;;
65172;SDS011;51758;52.218;5.172;2022-10-23T08:45:48;13.63;;;5.73;;
65172;SDS011;51758;52.218;5.172;2022-10-23T08:48:21;11.00;;;6.23;;
65172;SDS011;51758;52.218;5.172;2022-10-23T08:50:55;10.57;;;6.27;;
65172;SDS011;51758;52.218;5.172;2022-10-23T08:53:26;15.03;;;6.73;;
65172;SDS011;51758;52.218;5.172;2022-10-23T08:56:01;14.70;;;6.27;;
65172;SDS011;51758;52.218;5.172;2022-10-23T08:58:33;10.27;;;5.73;;
65172;SDS011;51758;52.218;5.172;2022-10-23T09:01:13;15.80;;;5.90;;
65172;SDS011;51758;52.218;5.172;2022-10-23T09:03:58;14.80;;;5.70;;
65172;SDS011;51758;52.218;5.172;2022-10-23T09:06:29;10.00;;;5.70;;
65172;SDS011;51758;52.218;5.172;2022-10-23T09:09:05;12.13;;;5.70;;
65172;SDS011;51758;52.218;5.172;2022-10-23T09:11:45;9.37;;;5.10;;
65172;SDS011;51758;52.218;5.172;2022-10-23T09:14:33;13.13;;;5.82;;
65172;SDS011;51758;52.218;5.172;2022-10-23T09:17:11;9.67;;;5.40;;
65172;SDS011;51758;52.218;5.172;2022-10-23T09:19:53;10.48;;;5.68;;
65172;SDS011;51758;52.218;5.172;2022-10-23T09:22:26;8.90;;;4.95;;
65172;SDS011;51758;52.218;5.172;2022-10-23T09:24:53;11.63;;;5.05;;
65172;SDS011;51758;52.218;5.172;2022-10-23T09:27:21;8.05;;;5.10;;
65172;SDS011;51758;52.218;5.172;2022-10-23T09:29:49;9.13;;;4.63;;
65172;SDS011;51758;52.218;5.172;2022-10-23T09:32:19;9.15;;;5.10;;
65172;SDS011;51758;52.218;5.172;2022-10-23T09:34:59;8.40;;;4.70;;
65172;SDS011;51758;52.218;5.172;2022-10-23T09:37:27;7.63;;;4.63;;
65172;SDS011;51758;52.218;5.172;2022-10-23T09:40:00;10.60;;;5.00;;
65172;SDS011;51758;52.218;5.172;2022-10-23T09:42:30;7.72;;;4.30;;
65172;SDS011;51758;52.218;5.172;2022-10-23T09:44:58;10.03;;;4.87;;
65172;SDS011;51758;52.218;5.172;2022-10-23T09:47:26;8.45;;;4.47;;
65172;SDS011;51758;52.218;5.172;2022-10-23T09:49:55;12.00;;;4.60;;
65172;SDS011;51758;52.218;5.172;2022-10-23T09:52:27;10.65;;;4.45;;
65172;SDS011;51758;52.218;5.172;2022-10-23T09:54:59;8.85;;;4.35;;
65172;SDS011;51758;52.218;5.172;2022-10-23T09:57:29;8.93;;;4.57;;
65172;SDS011;51758;52.218;5.172;2022-10-23T10:00:04;11.77;;;4.72;;
65172;SDS011;51758;52.218;5.172;2022-10-23T10:02:42;7.63;;;4.30;;
65172;SDS011;51758;52.218;5.172;2022-10-23T10:05:18;8.40;;;3.80;;
65172;SDS011;51758;52.218;5.172;2022-10-23T10:07:57;8.68;;;4.28;;
65172;SDS011;51758;52.218;5.172;2022-10-23T10:10:31;9.52;;;4.40;;
65172;SDS011;51758;52.218;5.172;2022-10-23T10:13:02;7.47;;;4.07;;
65172;SDS011;51758;52.218;5.172;2022-10-23T10:15:42;8.15;;;4.53;;
65172;SDS011;51758;52.218;5.172;2022-10-23T10:18:16;12.73;;;4.45;;
65172;SDS011;51758;52.218;5.172;2022-10-23T10:20:54;8.70;;;3.90;;
65172;SDS011;51758;52.218;5.172;2022-10-23T10:23:33;9.45;;;3.83;;
65172;SDS011;51758;52.218;5.172;2022-10-23T10:26:11;10.05;;;3.85;;
65172;SDS011;51758;52.218;5.172;2022-10-23T10:28:47;10.07;;;4.20;;
65172;SDS011;51758;52.218;5.172;2022-10-23T10:31:25;10.52;;;3.92;;
65172;SDS011;51758;52.218;5.172;2022-10-23T10:34:06;7.20;;;3.33;;
65172;SDS011;51758;52.218;5.172;2022-10-23T10:36:41;9.68;;;3.75;;
65172;SDS011;51758;52.218;5.172;2022-10-23T10:39:19;7.38;;;3.70;;
65172;SDS011;51758;52.218;5.172;2022-10-23T10:41:58;6.90;;;3.50;;
65172;SDS011;51758;52.218;5.172;2022-10-23T10:47:32;7.75;;;3.33;;
65172;SDS011;51758;52.218;5.172;2022-10-23T10:50:14;8.40;;;3.50;;
65172;SDS011;51758;52.218;5.172;2022-10-23T10:52:46;10.68;;;3.75;;
65172;SDS011;51758;52.218;5.172;2022-10-23T10:55:25;10.27;;;3.55;;
65172;SDS011;51758;52.218;5.172;2022-10-23T10:58:00;8.10;;;3.40;;
65172;SDS011;51758;52.218;5.172;2022-10-23T11:00:32;7.78;;;3.28;;
65172;SDS011;51758;52.218;5.172;2022-10-23T11:03:00;5.63;;;3.33;;
65172;SDS011;51758;52.218;5.172;2022-10-23T11:05:36;5.72;;;3.30;;
65172;SDS011;51758;52.218;5.172;2022-10-23T11:08:10;8.52;;;3.28;;
65172;SDS011;51758;52.218;5.172;2022-10-23T11:10:43;7.20;;;2.88;;
65172;SDS011;51758;52.218;5.172;2022-10-23T11:13:17;6.22;;;2.88;;
65172;SDS011;51758;52.218;5.172;2022-10-23T11:15:51;9.25;;;3.58;;
65172;SDS011;51758;52.218;5.172;2022-10-23T11:18:24;5.78;;;2.95;;
65172;SDS011;51758;52.218;5.172;2022-10-23T11:20:56;6.78;;;3.17;;
65172;SDS011;51758;52.218;5.172;2022-10-23T11:23:38;12.00;;;3.40;;
65172;SDS011;51758;52.218;5.172;2022-10-23T11:26:24;8.15;;;3.22;;
65172;SDS011;51758;52.218;5.172;2022-10-23T11:32:12;7.95;;;2.72;;
65172;SDS011;51758;52.218;5.172;2022-10-23T11:34:58;6.00;;;2.38;;
65172;SDS011;51758;52.218;5.172;2022-10-23T11:37:36;5.57;;;2.83;;
65172;SDS011;51758;52.218;5.172;2022-10-23T11:40:12;7.67;;;2.90;;
65172;SDS011;51758;52.218;5.172;2022-10-23T11:42:49;5.80;;;2.90;;
65172;SDS011;51758;52.218;5.172;2022-10-23T11:45:27;8.68;;;3.40;;
65172;SDS011;51758;52.218;5.172;2022-10-23T11:48:00;7.15;;;3.35;;
65172;SDS011;51758;52.218;5.172;2022-10-23T11:50:31;5.60;;;2.65;;
65172;SDS011;51758;52.218;5.172;2022-10-23T11:53:22;7.28;;;3.20;;
65172;SDS011;51758;52.218;5.172;2022-10-23T11:55:56;7.03;;;2.80;;
65172;SDS011;51758;52.218;5.172;2022-10-23T11:58:28;5.68;;;2.80;;
65172;SDS011;51758;52.218;5.172;2022-10-23T12:01:15;5.65;;;2.80;;
65172;SDS011;51758;52.218;5.172;2022-10-23T12:03:51;7.13;;;2.88;;
65172;SDS011;51758;52.218;5.172;2022-10-23T12:06:24;6.80;;;2.70;;
65172;SDS011;51758;52.218;5.172;2022-10-23T12:08:54;6.13;;;2.58;;
65172;SDS011;51758;52.218;5.172;2022-10-23T12:11:40;6.10;;;2.70;;
65172;SDS011;51758;52.218;5.172;2022-10-23T12:14:27;7.97;;;2.45;;
65172;SDS011;51758;52.218;5.172;2022-10-23T12:16:56;7.88;;;2.65;;
65172;SDS011;51758;52.218;5.172;2022-10-23T12:19:25;6.95;;;2.70;;
65172;SDS011;51758;52.218;5.172;2022-10-23T12:21:56;7.13;;;2.50;;
65172;SDS011;51758;52.218;5.172;2022-10-23T12:24:42;9.73;;;2.58;;
65172;SDS011;51758;52.218;5.172;2022-10-23T12:27:24;6.35;;;2.25;;
65172;SDS011;51758;52.218;5.172;2022-10-23T12:32:45;4.57;;;2.17;;
65172;SDS011;51758;52.218;5.172;2022-10-23T12:38:47;4.88;;;2.25;;
65172;SDS011;51758;52.218;5.172;2022-10-23T12:41:23;6.00;;;2.13;;
65172;SDS011;51758;52.218;5.172;2022-10-23T12:43:52;6.07;;;2.15;;
65172;SDS011;51758;52.218;5.172;2022-10-23T12:46:29;6.57;;;2.33;;
65172;SDS011;51758;52.218;5.172;2022-10-23T12:48:59;5.38;;;2.00;;
65172;SDS011;51758;52.218;5.172;2022-10-23T12:51:30;5.18;;;2.03;;
65172;SDS011;51758;52.218;5.172;2022-10-23T12:53:59;3.75;;;2.15;;
65172;SDS011;51758;52.218;5.172;2022-10-23T12:59:00;6.18;;;2.50;;
65172;SDS011;51758;52.218;5.172;2022-10-23T13:01:31;5.78;;;2.20;;
65172;SDS011;51758;52.218;5.172;2022-10-23T13:04:04;3.25;;;2.00;;
65172;SDS011;51758;52.218;5.172;2022-10-23T13:06:39;6.07;;;2.55;;
65172;SDS011;51758;52.218;5.172;2022-10-23T13:09:11;4.60;;;2.05;;
65172;SDS011;51758;52.218;5.172;2022-10-23T13:11:48;3.72;;;1.98;;
65172;SDS011;51758;52.218;5.172;2022-10-23T13:14:27;6.13;;;2.10;;
65172;SDS011;51758;52.218;5.172;2022-10-23T13:17:01;5.03;;;2.08;;
65172;SDS011;51758;52.218;5.172;2022-10-23T13:19:30;5.25;;;2.22;;
65172;SDS011;51758;52.218;5.172;2022-10-23T13:21:59;9.93;;;2.10;;
65172;SDS011;51758;52.218;5.172;2022-10-23T13:24:27;5.82;;;2.58;;
65172;SDS011;51758;52.218;5.172;2022-10-23T13:26:56;5.82;;;2.28;;
65172;SDS011;51758;52.218;5.172;2022-10-23T13:29:25;5.20;;;2.33;;
65172;SDS011;51758;52.218;5.172;2022-10-23T13:31:55;9.05;;;2.60;;
65172;SDS011;51758;52.218;5.172;2022-10-23T13:34:25;5.60;;;2.40;;
65172;SDS011;51758;52.218;5.172;2022-10-23T13:36:55;10.02;;;2.50;;
65172;SDS011;51758;52.218;5.172;2022-10-23T13:39:26;6.40;;;2.20;;
65172;SDS011;51758;52.218;5.172;2022-10-23T13:41:55;4.70;;;2.25;;
65172;SDS011;51758;52.218;5.172;2022-10-23T13:44:27;4.65;;;2.22;;
65172;SDS011;51758;52.218;5.172;2022-10-23T13:46:55;7.53;;;2.70;;
65172;SDS011;51758;52.218;5.172;2022-10-23T13:49:23;8.10;;;2.35;;
65172;SDS011;51758;52.218;5.172;2022-10-23T13:51:52;6.60;;;2.72;;
65172;SDS011;51758;52.218;5.172;2022-10-23T13:54:22;7.85;;;2.10;;
65172;SDS011;51758;52.218;5.172;2022-10-23T13:56:51;5.18;;;2.60;;
65172;SDS011;51758;52.218;5.172;2022-10-23T13:59:19;6.30;;;2.47;;
65172;SDS011;51758;52.218;5.172;2022-10-23T14:01:48;11.70;;;2.67;;
65172;SDS011;51758;52.218;5.172;2022-10-23T14:04:17;4.45;;;2.42;;
65172;SDS011;51758;52.218;5.172;2022-10-23T14:06:46;5.63;;;2.40;;
65172;SDS011;51758;52.218;5.172;2022-10-23T14:09:15;5.47;;;2.40;;
65172;SDS011;51758;52.218;5.172;2022-10-23T14:11:44;6.45;;;2.60;;
65172;SDS011;51758;52.218;5.172;2022-10-23T14:14:12;7.85;;;2.60;;
65172;SDS011;51758;52.218;5.172;2022-10-23T14:16:40;5.20;;;2.37;;
65172;SDS011;51758;52.218;5.172;2022-10-23T14:19:08;11.65;;;2.97;;
65172;SDS011;51758;52.218;5.172;2022-10-23T14:21:36;4.15;;;2.08;;
65172;SDS011;51758;52.218;5.172;2022-10-23T14:24:06;8.10;;;2.77;;
65172;SDS011;51758;52.218;5.172;2022-10-23T14:26:34;3.88;;;2.05;;
65172;SDS011;51758;52.218;5.172;2022-10-23T14:29:03;10.52;;;2.72;;
65172;SDS011;51758;52.218;5.172;2022-10-23T14:31:36;5.25;;;2.10;;
65172;SDS011;51758;52.218;5.172;2022-10-23T14:34:04;4.68;;;2.30;;
65172;SDS011;51758;52.218;5.172;2022-10-23T14:36:31;9.00;;;2.70;;
65172;SDS011;51758;52.218;5.172;2022-10-23T14:39:17;8.70;;;2.85;;
65172;SDS011;51758;52.218;5.172;2022-10-23T14:41:44;5.68;;;2.80;;
65172;SDS011;51758;52.218;5.172;2022-10-23T14:44:12;7.20;;;2.33;;
65172;SDS011;51758;52.218;5.172;2022-10-23T14:46:39;10.07;;;3.00;;
65172;SDS011;51758;52.218;5.172;2022-10-23T14:49:07;7.00;;;2.67;;
65172;SDS011;51758;52.218;5.172;2022-10-23T14:51:35;7.90;;;2.93;;
65172;SDS011;51758;52.218;5.172;2022-10-23T14:54:03;6.23;;;2.77;;
65172;SDS011;51758;52.218;5.172;2022-10-23T14:56:34;6.88;;;2.63;;
65172;SDS011;51758;52.218;5.172;2022-10-23T14:59:03;4.18;;;2.58;;
65172;SDS011;51758;52.218;5.172;2022-10-23T15:01:32;5.40;;;2.53;;
65172;SDS011;51758;52.218;5.172;2022-10-23T15:04:02;6.03;;;2.78;;
65172;SDS011;51758;52.218;5.172;2022-10-23T15:06:30;5.90;;;2.90;;
65172;SDS011;51758;52.218;5.172;2022-10-23T15:08:58;11.77;;;2.80;;
65172;SDS011;51758;52.218;5.172;2022-10-23T15:11:27;9.95;;;2.53;;
65172;SDS011;51758;52.218;5.172;2022-10-23T15:13:57;7.25;;;2.60;;
65172;SDS011;51758;52.218;5.172;2022-10-23T15:16:25;6.95;;;2.72;;
65172;SDS011;51758;52.218;5.172;2022-10-23T15:18:53;6.18;;;2.60;;
65172;SDS011;51758;52.218;5.172;2022-10-23T15:21:21;3.63;;;2.73;;
65172;SDS011;51758;52.218;5.172;2022-10-23T15:23:48;10.13;;;2.85;;
65172;SDS011;51758;52.218;5.172;2022-10-23T15:26:18;6.60;;;3.00;;
65172;SDS011;51758;52.218;5.172;2022-10-23T15:28:51;5.35;;;2.70;;